createdAt,value
2023-04-24T00:02:04.729Z,36.66
2023-04-24T00:04:34.095Z,36.13
2023-04-24T00:07:01.330Z,36.58
2023-04-24T00:09:28.521Z,36.83
2023-04-24T00:11:55.623Z,37.15
2023-04-24T00:14:22.865Z,37.19
2023-04-24T00:16:50.327Z,37.44
2023-04-24T00:19:17.685Z,37.43
2023-04-24T00:21:44.857Z,37.58
2023-04-24T00:24:12.052Z,37.68
2023-04-24T00:26:39.197Z,37.29
2023-04-24T00:29:06.606Z,37.35
2023-04-24T00:31:35.960Z,37.20
2023-04-24T00:34:03.750Z,37.84
2023-04-24T00:36:32.034Z,37.82
2023-04-24T00:38:59.267Z,38.06
2023-04-24T00:41:26.561Z,37.84
2023-04-24T00:43:54.009Z,38.15
2023-04-24T00:46:21.326Z,39.00
2023-04-24T00:48:49.163Z,39.62
2023-04-24T00:51:17.026Z,40.07
2023-04-24T00:53:44.196Z,39.74
2023-04-24T00:56:11.395Z,39.69
2023-04-24T00:58:38.398Z,39.22
2023-04-24T01:01:08.414Z,39.27
2023-04-24T01:03:38.296Z,39.50
2023-04-24T01:06:05.816Z,39.54
2023-04-24T01:08:32.842Z,39.10
2023-04-24T01:10:59.899Z,39.18
2023-04-24T01:13:26.871Z,39.40
2023-04-24T01:15:54.042Z,39.59
2023-04-24T01:18:22.385Z,40.26
2023-04-24T01:20:52.419Z,40.73
2023-04-24T01:23:19.498Z,41.98
2023-04-24T01:25:46.955Z,41.98
2023-04-24T01:28:15.222Z,42.56
2023-04-24T01:30:42.464Z,42.81
2023-04-24T01:33:09.716Z,42.60
2023-04-24T01:35:38.531Z,42.68
2023-04-24T01:38:06.792Z,43.18
2023-04-24T01:40:34.036Z,43.11
2023-04-24T01:43:01.324Z,42.97
2023-04-24T01:45:28.909Z,42.60
2023-04-24T01:47:57.396Z,41.82
2023-04-24T01:50:24.824Z,41.28
2023-04-24T01:52:52.361Z,41.26
2023-04-24T01:55:19.621Z,41.18
2023-04-24T01:57:46.947Z,41.53
2023-04-24T02:00:14.383Z,41.13
2023-04-24T02:02:43.106Z,41.18
2023-04-24T02:05:12.165Z,41.71
2023-04-24T02:07:39.381Z,42.22
2023-04-24T02:10:07.236Z,42.50
2023-04-24T02:12:34.264Z,42.38
2023-04-24T02:15:01.419Z,42.49
2023-04-24T02:17:28.644Z,42.63
2023-04-24T02:19:55.769Z,42.35
2023-04-24T02:22:22.797Z,42.64
2023-04-24T02:24:49.824Z,42.88
2023-04-24T02:27:16.816Z,42.64
2023-04-24T02:29:44.162Z,42.73
2023-04-24T02:32:13.331Z,42.67
2023-04-24T02:34:40.891Z,42.26
2023-04-24T02:37:08.142Z,42.17
2023-04-24T02:39:37.288Z,42.47
2023-04-24T02:42:04.491Z,42.05
2023-04-24T02:44:31.773Z,42.03
2023-04-24T02:46:58.797Z,42.00
2023-04-24T02:49:25.870Z,41.76
2023-04-24T02:51:52.972Z,41.40
2023-04-24T02:54:20.120Z,41.33
2023-04-24T02:56:47.147Z,41.50
2023-04-24T02:59:14.357Z,41.42
2023-04-24T03:01:41.646Z,41.78
2023-04-24T03:04:09.015Z,41.67
2023-04-24T03:06:36.732Z,41.71
2023-04-24T03:09:04.770Z,41.54
2023-04-24T03:11:32.746Z,41.02
2023-04-24T03:14:00.002Z,40.96
2023-04-24T03:16:27.104Z,41.02
2023-04-24T03:18:56.098Z,40.61
2023-04-24T03:21:24.966Z,40.52
2023-04-24T03:23:52.072Z,40.46
2023-04-24T03:26:19.353Z,40.25
2023-04-24T03:28:57.561Z,40.55
2023-04-24T03:31:24.854Z,40.92
2023-04-24T03:33:52.407Z,41.22
2023-04-24T03:36:20.534Z,41.49
2023-04-24T03:38:47.681Z,41.37
2023-04-24T03:41:23.179Z,41.65
2023-04-24T03:43:54.993Z,42.10
2023-04-24T03:46:22.120Z,41.84
2023-04-24T03:48:54.329Z,42.30
2023-04-24T03:51:24.092Z,42.09
2023-04-24T03:53:52.532Z,41.87
2023-04-24T03:56:21.809Z,41.43
2023-04-24T03:58:49.244Z,41.11
2023-04-24T04:01:17.308Z,41.37
2023-04-24T04:03:51.034Z,42.72
2023-04-24T04:06:20.712Z,42.44
2023-04-24T04:08:48.066Z,41.98
2023-04-24T04:11:15.343Z,42.55
2023-04-24T04:13:42.372Z,42.66
2023-04-24T04:16:09.922Z,43.10
2023-04-24T04:18:37.627Z,43.18
2023-04-24T04:21:05.540Z,42.67
2023-04-24T04:23:33.178Z,41.90
2023-04-24T04:26:12.548Z,42.07
2023-04-24T04:28:53.626Z,43.36
2023-04-24T04:31:22.258Z,43.12
2023-04-24T04:33:50.078Z,42.84
2023-04-24T04:36:19.816Z,42.47
2023-04-24T04:38:50.560Z,43.13
2023-04-24T04:41:36.358Z,43.24
2023-04-24T04:44:05.865Z,43.22
2023-04-24T04:46:37.454Z,42.61
2023-04-24T04:49:22.867Z,41.67
2023-04-24T04:51:51.997Z,41.52
2023-04-24T04:54:19.501Z,41.19
2023-04-24T04:56:46.661Z,41.08
2023-04-24T04:59:14.059Z,40.72
2023-04-24T05:01:41.793Z,40.25
2023-04-24T05:04:09.469Z,39.94
2023-04-24T05:06:37.976Z,39.13
2023-04-24T05:09:05.819Z,39.07
2023-04-24T05:11:56.544Z,39.37
2023-04-24T05:14:24.270Z,39.28
2023-04-24T05:16:52.100Z,39.06
2023-04-24T05:19:20.750Z,38.79
2023-04-24T05:21:47.920Z,38.68
2023-04-24T05:24:15.486Z,38.85
2023-04-24T05:27:01.422Z,38.96
2023-04-24T05:29:35.398Z,38.92
2023-04-24T05:32:04.460Z,38.70
2023-04-24T05:34:31.556Z,38.88
2023-04-24T05:36:58.692Z,38.98
2023-04-24T05:39:26.816Z,38.81
2023-04-24T05:41:54.594Z,39.03
2023-04-24T05:44:21.661Z,38.54
2023-04-24T05:46:49.171Z,38.61
2023-04-24T05:49:16.740Z,38.45
2023-04-24T05:51:44.242Z,38.39
2023-04-24T05:54:13.730Z,38.40
2023-04-24T05:56:43.009Z,38.10
2023-04-24T05:59:11.293Z,37.94
2023-04-24T06:01:39.369Z,37.80
2023-04-24T06:04:11.650Z,37.40
2023-04-24T06:06:38.852Z,36.94
2023-04-24T06:09:06.181Z,36.93
2023-04-24T06:11:33.463Z,36.52
2023-04-24T06:14:01.162Z,36.42
2023-04-24T06:16:43.268Z,35.82
2023-04-24T06:19:20.805Z,35.85
2023-04-24T06:21:48.125Z,35.74
2023-04-24T06:24:15.743Z,35.64
2023-04-24T06:26:43.001Z,35.44
2023-04-24T06:29:10.179Z,35.24
2023-04-24T06:31:38.392Z,35.08
2023-04-24T06:34:05.594Z,34.75
2023-04-24T06:36:33.733Z,34.60
2023-04-24T06:39:00.994Z,34.57
2023-04-24T06:41:29.033Z,34.41
2023-04-24T06:43:56.314Z,33.31
2023-04-24T06:46:25.146Z,33.15
2023-04-24T06:48:52.210Z,32.81
2023-04-24T06:51:19.515Z,32.62
2023-04-24T06:53:48.679Z,32.58
2023-04-24T06:56:16.227Z,32.27
2023-04-24T06:58:43.401Z,32.40
2023-04-24T07:01:11.472Z,32.06
2023-04-24T07:03:38.816Z,32.40
2023-04-24T07:06:06.699Z,32.02
2023-04-24T07:08:34.403Z,31.34
2023-04-24T07:11:01.703Z,31.21
2023-04-24T07:13:28.748Z,30.92
2023-04-24T07:15:57.544Z,30.54
2023-04-24T07:18:25.136Z,30.27
2023-04-24T07:20:52.399Z,30.29
2023-04-24T07:23:19.814Z,29.87
2023-04-24T07:25:46.911Z,29.73
2023-04-24T07:28:14.549Z,29.72
2023-04-24T07:30:41.754Z,29.34
2023-04-24T07:33:08.880Z,28.07
2023-04-24T07:35:36.657Z,28.40
2023-04-24T07:38:03.653Z,28.68
2023-04-24T07:40:30.817Z,27.99
2023-04-24T07:42:58.103Z,28.48
2023-04-24T07:45:27.304Z,28.80
2023-04-24T07:47:54.426Z,28.42
2023-04-24T07:50:21.987Z,28.27
2023-04-24T07:52:49.390Z,27.89
2023-04-24T07:55:16.835Z,27.63
2023-04-24T07:57:43.885Z,27.45
2023-04-24T08:00:11.762Z,27.58
2023-04-24T08:02:38.994Z,27.43
2023-04-24T08:05:07.167Z,26.83
2023-04-24T08:07:34.441Z,27.01
2023-04-24T08:10:01.560Z,27.04
2023-04-24T08:12:30.280Z,26.77
2023-04-24T08:14:57.447Z,26.78
2023-04-24T08:17:25.049Z,26.92
2023-04-24T08:19:54.423Z,26.42
2023-04-24T08:22:21.761Z,26.18
2023-04-24T08:24:48.831Z,26.27
2023-04-24T08:27:16.017Z,26.15
2023-04-24T08:29:43.461Z,26.27
2023-04-24T08:32:10.875Z,25.95
2023-04-24T08:34:38.130Z,25.61
2023-04-24T08:37:05.243Z,25.32
2023-04-24T08:39:32.403Z,25.44
2023-04-24T08:42:06.378Z,25.61
2023-04-24T08:44:34.765Z,25.06
2023-04-24T08:47:04.659Z,25.71
2023-04-24T08:49:31.759Z,25.82
2023-04-24T08:51:58.879Z,25.83
2023-04-24T08:54:26.433Z,25.71
2023-04-24T08:56:53.691Z,25.54
2023-04-24T08:59:20.982Z,25.60
2023-04-24T09:01:48.366Z,25.58
2023-04-24T09:04:17.662Z,25.02
2023-04-24T09:06:45.088Z,25.20
2023-04-24T09:09:12.946Z,25.10
2023-04-24T09:11:39.899Z,25.33
2023-04-24T09:14:06.953Z,24.81
2023-04-24T09:16:36.561Z,24.44
2023-04-24T09:19:04.627Z,24.69
2023-04-24T09:21:35.571Z,24.62
2023-04-24T09:24:07.364Z,24.31
2023-04-24T09:26:36.989Z,23.89
2023-04-24T09:29:04.615Z,23.95
2023-04-24T09:31:31.842Z,24.18
2023-04-24T09:34:06.448Z,24.10
2023-04-24T09:36:39.324Z,23.62
2023-04-24T09:39:09.443Z,23.92
2023-04-24T09:41:36.874Z,23.89
2023-04-24T09:44:17.853Z,24.03
2023-04-24T09:46:46.682Z,23.65
2023-04-24T09:49:16.086Z,24.31
2023-04-24T09:51:43.465Z,24.21
2023-04-24T09:54:18.516Z,24.08
2023-04-24T09:56:46.698Z,23.98
2023-04-24T09:59:17.955Z,23.96
2023-04-24T10:01:49.816Z,24.35
2023-04-24T10:04:18.714Z,23.94
2023-04-24T10:06:45.943Z,23.99
2023-04-24T10:09:14.950Z,23.69
2023-04-24T10:11:43.187Z,23.83
2023-04-24T10:15:30.191Z,25.29
2023-04-24T10:17:58.687Z,23.38
2023-04-24T10:20:27.716Z,23.32
2023-04-24T10:22:54.874Z,23.27
2023-04-24T10:25:22.997Z,23.11
2023-04-24T10:27:50.714Z,23.07
2023-04-24T10:30:18.658Z,23.12
2023-04-24T10:32:45.606Z,23.40
2023-04-24T10:35:13.458Z,22.30
2023-04-24T10:37:42.854Z,22.16
2023-04-24T10:40:10.363Z,22.33
2023-04-24T10:42:41.994Z,22.13
2023-04-24T10:45:17.647Z,22.30
2023-04-24T10:47:56.931Z,22.27
2023-04-24T10:50:25.213Z,22.10
2023-04-24T10:52:53.208Z,21.98
2023-04-24T10:55:46.314Z,21.47
2023-04-24T10:58:13.803Z,21.50
2023-04-24T11:00:41.612Z,21.48
2023-04-24T11:03:30.729Z,21.65
2023-04-24T11:06:02.983Z,21.73
2023-04-24T11:08:39.475Z,22.24
2023-04-24T11:11:13.340Z,21.79
2023-04-24T11:13:56.017Z,22.25
2023-04-24T11:16:26.866Z,22.61
2023-04-24T11:19:03.024Z,23.32
2023-04-24T11:21:55.912Z,23.43
2023-04-24T11:24:35.761Z,23.24
2023-04-24T11:27:12.448Z,23.90
2023-04-24T11:30:00.591Z,23.98
2023-04-24T11:32:34.356Z,24.08
2023-04-24T11:35:11.726Z,23.54
2023-04-24T11:37:39.810Z,23.34
2023-04-24T11:40:08.793Z,23.92
2023-04-24T11:42:37.282Z,24.12
2023-04-24T11:45:07.969Z,24.16
2023-04-24T11:47:35.925Z,24.31
2023-04-24T11:50:03.859Z,24.45
2023-04-24T11:52:31.579Z,24.59
2023-04-24T11:55:01.717Z,24.69
2023-04-24T11:57:34.076Z,24.69
2023-04-24T12:00:03.213Z,24.36
2023-04-24T12:02:40.293Z,24.50
2023-04-24T12:05:08.211Z,24.40
2023-04-24T12:07:43.353Z,24.19
2023-04-24T12:10:10.534Z,24.16
2023-04-24T12:12:37.858Z,23.80
2023-04-24T12:15:08.698Z,23.48
2023-04-24T12:17:37.210Z,23.40
2023-04-24T12:20:05.736Z,23.27
2023-04-24T12:22:49.757Z,23.25
2023-04-24T12:25:18.142Z,23.02
2023-04-24T12:27:55.912Z,23.17
2023-04-24T12:30:28.265Z,23.43
2023-04-24T12:32:55.525Z,23.25
2023-04-24T12:35:24.170Z,23.31
2023-04-24T12:37:51.896Z,23.30
2023-04-24T12:40:21.611Z,23.36
2023-04-24T12:42:49.979Z,23.45
2023-04-24T12:45:18.020Z,23.23
2023-04-24T12:47:45.719Z,23.35
2023-04-24T12:50:13.484Z,23.68
2023-04-24T12:52:40.601Z,24.08
2023-04-24T12:55:08.582Z,24.37
2023-04-24T12:57:36.633Z,24.31
2023-04-24T13:00:06.608Z,24.46
2023-04-24T13:02:35.079Z,24.42
2023-04-24T13:05:02.371Z,24.49
2023-04-24T13:07:29.832Z,24.57
2023-04-24T13:09:58.084Z,24.82
2023-04-24T13:12:25.953Z,24.88
2023-04-24T13:14:53.494Z,24.86
2023-04-24T13:17:20.784Z,25.00
2023-04-24T13:19:50.621Z,24.75
2023-04-24T13:22:19.328Z,24.41
2023-04-24T13:24:46.341Z,24.31
2023-04-24T13:27:13.354Z,24.40
2023-04-24T13:29:40.162Z,24.25
2023-04-24T13:32:07.302Z,24.02
2023-04-24T13:34:35.751Z,23.99
2023-04-24T13:37:04.221Z,23.91
2023-04-24T13:39:32.024Z,23.19
2023-04-24T13:41:59.156Z,23.16
2023-04-24T13:44:26.126Z,23.35
2023-04-24T13:46:57.259Z,23.12
2023-04-24T13:49:27.567Z,23.30
2023-04-24T13:51:55.401Z,23.89
2023-04-24T13:54:26.030Z,24.42
2023-04-24T13:56:52.996Z,25.05
2023-04-24T13:59:22.870Z,25.62
2023-04-24T14:01:50.058Z,25.76
2023-04-24T14:04:17.903Z,25.96
2023-04-24T14:06:45.298Z,26.21
2023-04-24T14:09:13.160Z,26.46
2023-04-24T14:11:41.372Z,26.71
2023-04-24T14:14:08.719Z,26.84
2023-04-24T14:16:35.887Z,26.86
2023-04-24T14:19:03.010Z,26.65
2023-04-24T14:21:32.154Z,26.60
2023-04-24T14:24:00.138Z,26.52
2023-04-24T14:26:27.178Z,26.20
2023-04-24T14:29:01.080Z,26.00
2023-04-24T14:31:38.316Z,25.98
2023-04-24T14:34:05.447Z,25.98
2023-04-24T14:36:32.499Z,25.76
2023-04-24T14:38:59.656Z,25.43
2023-04-24T14:41:26.473Z,25.27
2023-04-24T14:43:53.291Z,25.16
2023-04-24T14:46:20.681Z,24.77
2023-04-24T14:48:47.838Z,24.97
2023-04-24T14:51:15.031Z,24.81
2023-04-24T14:53:42.007Z,24.67
2023-04-24T14:56:08.871Z,24.71
2023-04-24T14:58:35.704Z,24.52
2023-04-24T15:01:02.551Z,24.47
2023-04-24T15:03:30.145Z,24.23
2023-04-24T15:05:57.283Z,23.94
2023-04-24T15:08:24.763Z,23.79
2023-04-24T15:10:51.889Z,23.74
2023-04-24T15:13:19.474Z,23.67
2023-04-24T15:15:48.009Z,23.46
2023-04-24T15:18:15.239Z,23.65
2023-04-24T15:20:42.403Z,23.66
2023-04-24T15:23:10.123Z,23.42
2023-04-24T15:25:37.550Z,23.47
2023-04-24T15:28:05.795Z,23.41
2023-04-24T15:30:33.440Z,23.10
2023-04-24T15:33:01.195Z,22.83
2023-04-24T15:35:28.480Z,22.92
2023-04-24T15:37:55.687Z,22.79
2023-04-24T15:40:22.915Z,22.94
2023-04-24T15:42:50.525Z,23.18
2023-04-24T15:45:17.624Z,23.08
2023-04-24T15:47:46.525Z,23.24
2023-04-24T15:50:14.900Z,23.33
2023-04-24T15:52:43.513Z,23.48
2023-04-24T15:55:10.588Z,23.31
2023-04-24T15:57:37.543Z,23.37
2023-04-24T16:00:10.073Z,23.73
2023-04-24T16:02:40.846Z,23.83
2023-04-24T16:05:08.261Z,24.11
2023-04-24T16:07:37.272Z,24.08
2023-04-24T16:10:04.395Z,24.30
2023-04-24T16:12:31.478Z,24.38
2023-04-24T16:14:58.787Z,24.36
2023-04-24T16:17:25.770Z,24.58
2023-04-24T16:19:52.580Z,24.67
2023-04-24T16:22:19.503Z,24.62
2023-04-24T16:24:47.548Z,25.14
2023-04-24T16:27:15.177Z,25.91
2023-04-24T16:29:42.617Z,26.53
2023-04-24T16:32:10.276Z,25.41
2023-04-24T16:34:37.437Z,25.65
2023-04-24T16:37:05.111Z,26.68
2023-04-24T16:39:31.996Z,27.52
2023-04-24T16:42:00.162Z,27.73
2023-04-24T16:44:27.842Z,27.71
2023-04-24T16:46:55.166Z,27.30
2023-04-24T16:49:23.277Z,26.29
2023-04-24T16:51:50.405Z,26.49
2023-04-24T16:54:17.581Z,27.45
2023-04-24T16:56:44.498Z,28.33
2023-04-24T16:59:11.464Z,29.02
2023-04-24T17:01:38.324Z,29.25
2023-04-24T17:04:06.126Z,29.64
2023-04-24T17:06:33.915Z,30.10
2023-04-24T17:09:00.721Z,29.92
2023-04-24T17:11:28.801Z,30.29
2023-04-24T17:13:59.144Z,30.08
2023-04-24T17:16:26.163Z,30.84
2023-04-24T17:18:53.554Z,30.88
2023-04-24T17:21:20.497Z,30.78
2023-04-24T17:23:47.370Z,30.86
2023-04-24T17:26:14.223Z,31.27
2023-04-24T17:28:41.513Z,31.34
2023-04-24T17:31:08.677Z,31.58
2023-04-24T17:33:36.666Z,31.36
2023-04-24T17:36:03.708Z,31.51
2023-04-24T17:38:30.779Z,31.23
2023-04-24T17:40:57.816Z,31.24
2023-04-24T17:43:25.611Z,30.91
2023-04-24T17:45:55.319Z,31.16
2023-04-24T17:48:22.352Z,30.92
2023-04-24T17:50:49.392Z,31.54
2023-04-24T17:53:18.235Z,31.73
2023-04-24T17:55:48.157Z,31.85
2023-04-24T17:58:15.150Z,32.07
2023-04-24T18:00:42.485Z,31.96
2023-04-24T18:03:10.174Z,31.83
2023-04-24T18:05:37.939Z,32.38
2023-04-24T18:08:05.476Z,31.46
2023-04-24T18:10:33.033Z,30.72
2023-04-24T18:12:59.923Z,31.88
2023-04-24T18:15:26.750Z,32.18
2023-04-24T18:17:53.617Z,31.55
2023-04-24T18:20:21.162Z,30.74
2023-04-24T18:22:48.361Z,32.43
2023-04-24T18:25:15.209Z,34.76
2023-04-24T18:27:42.141Z,31.96
2023-04-24T18:30:13.551Z,30.96
2023-04-24T18:32:41.979Z,30.95
2023-04-24T18:35:09.456Z,30.78
2023-04-24T18:37:36.614Z,31.01
2023-04-24T18:40:03.636Z,31.79
2023-04-24T18:42:30.917Z,32.02
2023-04-24T18:45:01.980Z,32.16
2023-04-24T18:47:29.202Z,31.90
2023-04-24T18:49:56.314Z,32.50
2023-04-24T18:52:23.358Z,31.54
2023-04-24T18:54:50.240Z,31.70
2023-04-24T18:57:17.370Z,31.93
2023-04-24T18:59:44.197Z,31.98
2023-04-24T19:02:11.418Z,32.39
2023-04-24T19:04:38.519Z,32.30
2023-04-24T19:07:05.430Z,32.06
2023-04-24T19:09:33.144Z,32.07
2023-04-24T19:12:01.515Z,32.11
2023-04-24T19:14:28.547Z,32.35
2023-04-24T19:16:55.562Z,32.19
2023-04-24T19:19:23.383Z,32.15
2023-04-24T19:21:50.593Z,32.14
2023-04-24T19:24:20.809Z,32.12
2023-04-24T19:26:48.141Z,32.56
2023-04-24T19:29:15.140Z,32.74
2023-04-24T19:31:41.977Z,33.11
2023-04-24T19:34:09.174Z,32.72
2023-04-24T19:36:36.655Z,32.98
2023-04-24T19:39:03.556Z,33.47
2023-04-24T19:41:30.726Z,33.62
2023-04-24T19:43:57.505Z,33.70
2023-04-24T19:46:24.810Z,33.94
2023-04-24T19:48:51.933Z,34.43
2023-04-24T19:51:19.127Z,34.31
2023-04-24T19:53:45.943Z,34.75
2023-04-24T19:56:12.860Z,35.01
2023-04-24T19:58:40.333Z,35.09
2023-04-24T20:01:07.278Z,34.93
2023-04-24T20:03:35.040Z,35.38
2023-04-24T20:06:02.173Z,35.54
2023-04-24T20:08:29.247Z,35.87
2023-04-24T20:10:57.268Z,35.46
2023-04-24T20:13:27.485Z,35.28
2023-04-24T20:15:54.418Z,35.45
2023-04-24T20:18:21.373Z,35.28
2023-04-24T20:20:48.645Z,35.09
2023-04-24T20:23:15.908Z,35.07
2023-04-24T20:25:42.778Z,35.30
2023-04-24T20:28:09.821Z,35.08
2023-04-24T20:30:37.561Z,35.25
2023-04-24T20:33:04.451Z,35.16
2023-04-24T20:35:31.514Z,35.69
2023-04-24T20:37:59.000Z,35.40
2023-04-24T20:40:27.500Z,35.49
2023-04-24T20:42:55.204Z,35.76
2023-04-24T20:45:23.614Z,35.67
2023-04-24T20:47:50.918Z,35.74
2023-04-24T20:50:18.313Z,36.12
2023-04-24T20:52:45.267Z,36.20
2023-04-24T20:55:12.177Z,36.35
2023-04-24T20:57:39.054Z,36.37
2023-04-24T21:00:08.237Z,36.54
2023-04-24T21:02:35.642Z,36.59
2023-04-24T21:05:03.876Z,36.45
2023-04-24T21:07:30.832Z,36.63
2023-04-24T21:09:57.629Z,36.71
2023-04-24T21:12:25.039Z,36.92
2023-04-24T21:14:51.883Z,36.92
2023-04-24T21:17:18.727Z,36.53
2023-04-24T21:19:45.438Z,37.05
2023-04-24T21:22:12.190Z,36.91
2023-04-24T21:24:39.570Z,36.62
2023-04-24T21:27:06.951Z,36.49
2023-04-24T21:29:35.238Z,36.66
2023-04-24T21:32:02.675Z,36.89
2023-04-24T21:34:29.913Z,36.92
2023-04-24T21:36:56.959Z,37.77
2023-04-24T21:39:23.796Z,37.27
2023-04-24T21:41:50.880Z,37.05
2023-04-24T21:44:17.672Z,37.25
2023-04-24T21:46:44.802Z,37.87
2023-04-24T21:49:11.803Z,38.23
2023-04-24T21:51:38.650Z,38.40
2023-04-24T21:54:05.575Z,38.41
2023-04-24T21:56:32.424Z,38.53
2023-04-24T21:58:59.218Z,38.57
2023-04-24T22:01:26.338Z,38.61
2023-04-24T22:03:53.588Z,38.66
2023-04-24T22:06:21.080Z,38.72
2023-04-24T22:08:47.991Z,38.95
2023-04-24T22:11:25.832Z,38.92
2023-04-24T22:13:54.759Z,39.46
2023-04-24T22:16:23.126Z,39.11
2023-04-24T22:18:53.100Z,39.65
2023-04-24T22:21:22.956Z,39.57
2023-04-24T22:23:50.264Z,39.21
2023-04-24T22:26:17.550Z,38.68
2023-04-24T22:31:39.744Z,42.32
2023-04-24T22:34:06.601Z,39.42
2023-04-24T22:36:33.882Z,39.40
2023-04-24T22:39:00.928Z,40.26
2023-04-24T22:41:27.811Z,40.68
2023-04-24T22:43:55.412Z,40.89
2023-04-24T22:46:24.408Z,40.81
2023-04-24T22:48:51.820Z,40.75
2023-04-24T22:51:18.588Z,41.01
2023-04-24T22:53:45.568Z,40.87
2023-04-24T22:56:12.399Z,40.12
2023-04-24T22:58:39.200Z,40.22
2023-04-24T23:01:06.447Z,40.56
2023-04-24T23:03:35.058Z,40.40
2023-04-24T23:06:02.116Z,40.37
2023-04-24T23:08:30.444Z,40.91
2023-04-24T23:10:57.109Z,40.38
2023-04-24T23:13:25.390Z,41.97
2023-04-24T23:15:54.556Z,42.28
2023-04-24T23:18:21.921Z,42.43
2023-04-24T23:20:48.897Z,42.26
2023-04-24T23:23:16.131Z,42.19
2023-04-24T23:25:43.507Z,42.27
2023-04-24T23:28:10.584Z,42.80
2023-04-24T23:30:37.508Z,42.40
2023-04-24T23:33:04.628Z,42.54
2023-04-24T23:35:31.599Z,41.73
2023-04-24T23:37:58.726Z,42.05
2023-04-24T23:40:25.832Z,41.69
2023-04-24T23:43:05.783Z,41.85
2023-04-24T23:45:34.992Z,42.97
2023-04-24T23:48:03.516Z,42.57
2023-04-24T23:50:30.824Z,42.65
2023-04-24T23:52:57.680Z,42.86
2023-04-24T23:55:24.510Z,43.08
2023-04-24T23:57:51.599Z,43.06
